Terminal Aerodrome Forecast
Issued by NWS

Home | Current Version | Previous Version | Text Only | Print | Product List | Glossary On
Versions: 1 2 3 4 5 6 7 8 9 10 11 12 13 14 15 16 17 18 19 20 21
000
FTUS43 KDLH 181100
TAFHIB
TAF
KHIB 181134Z 1812/1912 VRB02KT P6SM FEW100
     FM181900 13008KT P6SM BKN100
     FM190600 12011KT 4SM -FZRASN OVC030
     FM190900 13012KT 4SM -FZRA OVC020 WS015/16045KT=

USA.gov is the U.S. government's official web portal to all federal, state and local government web resources and services.